Time;durP1;ratioP1;P1;durP2;ratioP2;P2;SDS_P1;SDS_P2;PMS_P1;PMS_P2;Temp;Humidity;BMP_temperature;BMP_pressure;BME280_temperature;BME280_humidity;BME280_pressure;Samples;Min_cycle;Max_cycle;Signal;HPM_P1;HPM_P2
2023/09/29 00:19:16;;;;;;;16.55;10.15;;;20.90;99.90;;;;;;4547148;19;20006;-74
2023/09/29 00:20:52;;;;;;;13.52;10.30;;;20.90;99.90;;;;;;4592297;19;20007;-74
2023/09/29 00:22:27;;;;;;;15.32;10.32;;;20.90;99.90;;;;;;4589399;19;20434;-73
2023/09/29 00:24:04;;;;;;;14.00;9.88;;;20.80;99.90;;;;;;4591758;19;20013;-73
2023/09/29 00:25:41;;;;;;;15.93;10.15;;;20.80;99.90;;;;;;4592044;19;20452;-74
2023/09/29 00:27:15;;;;;;;13.00;10.15;;;20.80;99.90;;;;;;4591960;19;19999;-74
2023/09/29 00:28:50;;;;;;;15.05;9.85;;;20.80;99.90;;;;;;4591679;19;20005;-74
2023/09/29 00:30:26;;;;;;;15.23;10.57;;;20.80;99.90;;;;;;4590629;19;20010;-74
2023/09/29 00:31:59;;;;;;;12.45;9.32;;;20.90;99.90;;;;;;4591884;19;20473;-74
2023/09/29 00:33:35;;;;;;;12.85;9.65;;;20.80;99.90;;;;;;4591870;19;20006;-74
2023/09/29 00:35:11;;;;;;;13.50;9.38;;;20.80;99.90;;;;;;4591549;19;20002;-74
2023/09/29 00:36:47;;;;;;;14.40;11.18;;;20.80;99.90;;;;;;4591840;19;20021;-74
2023/09/29 00:38:22;;;;;;;17.40;10.55;;;20.80;99.90;;;;;;4591825;19;20010;-73
2023/09/29 00:39:57;;;;;;;14.38;9.90;;;20.80;99.90;;;;;;4591066;19;20033;-73
2023/09/29 00:41:31;;;;;;;13.38;10.57;;;20.80;99.90;;;;;;4591297;19;20014;-74
2023/09/29 00:43:05;;;;;;;14.02;9.52;;;20.90;99.90;;;;;;4591429;19;19999;-73
2023/09/29 00:44:41;;;;;;;13.00;9.90;;;20.80;99.90;;;;;;4590381;19;20013;-73
2023/09/29 00:46:17;;;;;;;12.57;9.57;;;20.80;99.90;;;;;;4591060;19;20005;-73
2023/09/29 00:47:59;;;;;;;18.17;10.75;;;20.80;99.90;;;;;;4591660;19;19998;-72
2023/09/29 00:49:35;;;;;;;15.07;10.27;;;20.80;99.90;;;;;;4589589;19;20011;-73
2023/09/29 00:51:10;;;;;;;13.13;9.77;;;20.80;99.90;;;;;;4589953;19;20090;-73
2023/09/29 00:52:44;;;;;;;13.38;10.18;;;20.80;99.90;;;;;;4591237;19;20003;-73
2023/09/29 00:54:19;;;;;;;11.30;9.63;;;20.80;99.90;;;;;;4595653;19;20051;-73
2023/09/29 00:55:54;;;;;;;13.02;9.45;;;20.80;99.90;;;;;;4594517;19;20081;-73
2023/09/29 00:57:28;;;;;;;12.68;10.50;;;20.80;99.90;;;;;;4594334;19;20070;-73
2023/09/29 00:59:05;;;;;;;13.45;9.65;;;20.80;99.90;;;;;;4594502;19;20013;-73
2023/09/29 01:00:41;;;;;;;11.77;9.15;;;20.80;99.90;;;;;;4592715;19;20007;-73
2023/09/29 01:02:15;;;;;;;12.13;9.75;;;20.80;99.90;;;;;;4593294;19;20009;-73
2023/09/29 01:03:50;;;;;;;11.77;9.43;;;20.80;99.90;;;;;;4595354;19;20070;-73
2023/09/29 01:05:25;;;;;;;11.57;9.43;;;20.80;99.90;;;;;;4595920;19;20002;-73
2023/09/29 01:06:59;;;;;;;14.15;9.30;;;20.80;99.90;;;;;;4595871;19;20007;-73
2023/09/29 01:08:34;;;;;;;12.70;9.73;;;20.80;99.90;;;;;;4595946;19;20013;-73
2023/09/29 01:10:10;;;;;;;11.10;9.73;;;20.80;99.90;;;;;;4593319;19;20066;-73
2023/09/29 01:11:45;;;;;;;13.07;9.43;;;20.80;99.90;;;;;;4594544;19;20041;-73
2023/09/29 01:13:22;;;;;;;14.63;9.38;;;20.80;99.90;;;;;;4595161;19;20009;-73
2023/09/29 01:14:57;;;;;;;12.15;10.35;;;20.80;99.90;;;;;;4595438;19;20002;-73
2023/09/29 01:16:32;;;;;;;10.98;9.32;;;20.80;99.90;;;;;;4595729;19;19999;-73
2023/09/29 01:18:08;;;;;;;15.40;9.70;;;20.80;99.90;;;;;;4595308;19;20007;-73
2023/09/29 01:19:43;;;;;;;12.55;9.45;;;20.80;99.90;;;;;;4593116;19;20460;-73
2023/09/29 01:21:19;;;;;;;13.88;10.32;;;20.80;99.90;;;;;;4595031;19;20003;-73
2023/09/29 01:22:55;;;;;;;16.15;10.15;;;20.80;99.90;;;;;;4595655;19;20007;-73
2023/09/29 01:24:29;;;;;;;13.88;9.88;;;20.80;99.90;;;;;;4593913;19;20394;-72
2023/09/29 01:26:03;;;;;;;11.73;10.38;;;20.80;99.90;;;;;;4594742;19;19998;-73
2023/09/29 01:27:39;;;;;;;11.88;10.15;;;20.80;99.90;;;;;;4595586;19;20014;-73
2023/09/29 01:29:13;;;;;;;13.27;10.05;;;20.80;99.90;;;;;;4595199;19;20406;-73
2023/09/29 01:30:53;;;;;;;13.60;10.40;;;20.80;99.90;;;;;;4595428;19;20441;-72
2023/09/29 01:32:30;;;;;;;12.75;10.15;;;20.80;99.90;;;;;;4595221;19;20007;-73
2023/09/29 01:34:04;;;;;;;12.88;8.95;;;20.80;99.90;;;;;;4595054;19;19998;-73
2023/09/29 01:35:39;;;;;;;15.02;9.82;;;20.80;99.90;;;;;;4595064;19;19998;-73
2023/09/29 01:37:14;;;;;;;15.25;10.40;;;20.80;99.90;;;;;;4595058;19;20010;-73
2023/09/29 01:38:49;;;;;;;14.85;9.63;;;20.80;99.90;;;;;;4595263;19;20005;-73
2023/09/29 01:40:23;;;;;;;16.65;10.02;;;20.80;99.90;;;;;;4593606;19;20003;-73
2023/09/29 01:41:59;;;;;;;12.27;9.95;;;20.80;99.90;;;;;;4594318;19;19998;-73
2023/09/29 01:43:34;;;;;;;11.52;9.38;;;20.80;99.90;;;;;;4595126;19;20035;-73
2023/09/29 01:45:15;;;;;;;16.70;10.15;;;20.80;99.90;;;;;;4595094;19;20452;-72
2023/09/29 01:46:51;;;;;;;11.23;9.60;;;20.70;99.90;;;;;;4593555;19;20003;-72
2023/09/29 01:48:25;;;;;;;14.13;10.38;;;20.80;99.90;;;;;;4594833;19;20446;-73
2023/09/29 01:50:00;;;;;;;13.93;10.25;;;20.80;99.90;;;;;;4594111;19;20040;-73
2023/09/29 01:51:35;;;;;;;13.35;10.35;;;20.80;99.90;;;;;;4594764;19;20070;-73
2023/09/29 01:53:10;;;;;;;13.60;10.02;;;20.80;99.90;;;;;;4593615;19;20436;-73
2023/09/29 01:54:44;;;;;;;14.43;9.93;;;20.70;99.90;;;;;;4594344;19;20026;-73
2023/09/29 01:56:21;;;;;;;14.95;10.63;;;20.80;99.90;;;;;;4593395;19;20006;-73
2023/09/29 01:57:55;;;;;;;12.30;10.18;;;20.70;99.90;;;;;;4593247;19;20006;-72
2023/09/29 01:59:29;;;;;;;14.60;10.68;;;20.70;99.90;;;;;;4594044;19;20307;-73
2023/09/29 02:01:05;;;;;;;14.35;10.60;;;20.70;99.90;;;;;;4594547;19;20291;-73
2023/09/29 02:02:40;;;;;;;13.52;10.68;;;20.70;99.90;;;;;;4593331;19;20002;-73
2023/09/29 02:04:14;;;;;;;12.32;10.60;;;20.80;99.90;;;;;;4592808;19;20002;-73
2023/09/29 02:05:49;;;;;;;16.92;11.55;;;20.80;99.90;;;;;;4592741;19;19999;-73
2023/09/29 02:07:24;;;;;;;13.23;10.35;;;20.70;99.90;;;;;;4594370;19;20003;-73
2023/09/29 02:08:59;;;;;;;14.43;11.05;;;20.70;99.90;;;;;;4594363;19;20003;-73
2023/09/29 02:10:35;;;;;;;11.90;10.27;;;20.70;99.90;;;;;;4592981;19;20036;-73
2023/09/29 02:12:09;;;;;;;13.48;10.48;;;20.70;99.90;;;;;;4594302;19;20010;-73
2023/09/29 02:13:44;;;;;;;12.63;10.05;;;20.70;99.90;;;;;;4594560;19;20002;-73
2023/09/29 02:15:19;;;;;;;14.43;10.48;;;20.70;99.90;;;;;;4594293;19;20006;-73
2023/09/29 02:16:54;;;;;;;12.40;10.30;;;20.80;99.90;;;;;;4594263;19;20002;-73
2023/09/29 02:18:29;;;;;;;12.75;10.45;;;20.70;99.90;;;;;;4594166;19;20069;-74
2023/09/29 02:20:17;;;;;;;14.85;10.23;;;20.70;99.90;;;;;;4591968;19;20041;-73
2023/09/29 02:21:50;;;;;;;13.90;10.55;;;20.70;99.90;;;;;;4593597;19;20090;-73
2023/09/29 02:23:24;;;;;;;13.13;10.45;;;20.70;99.90;;;;;;4594286;19;20002;-73
2023/09/29 02:25:01;;;;;;;14.63;10.50;;;20.70;99.90;;;;;;4594483;19;20010;-73
2023/09/29 02:26:35;;;;;;;13.43;10.55;;;20.70;99.90;;;;;;4594231;19;20025;-73
2023/09/29 02:28:13;;;;;;;14.85;11.27;;;20.70;99.90;;;;;;4592858;19;20006;-73
2023/09/29 02:29:49;;;;;;;17.02;11.25;;;20.70;99.90;;;;;;4592931;19;20421;-73
2023/09/29 02:31:23;;;;;;;13.48;11.30;;;20.70;99.90;;;;;;4594152;19;20301;-73
2023/09/29 02:32:58;;;;;;;13.40;9.68;;;20.70;99.90;;;;;;4594112;19;19998;-73
2023/09/29 02:34:35;;;;;;;13.38;10.55;;;20.70;99.90;;;;;;4594180;19;20009;-73
2023/09/29 02:36:09;;;;;;;13.30;10.05;;;20.70;99.90;;;;;;4594024;19;19995;-73
2023/09/29 02:37:43;;;;;;;13.70;9.93;;;20.70;99.90;;;;;;4594013;19;19998;-73
2023/09/29 02:39:19;;;;;;;13.05;9.63;;;20.70;99.90;;;;;;4593763;19;20002;-73
2023/09/29 02:40:54;;;;;;;13.77;9.55;;;20.70;99.90;;;;;;4593657;19;20025;-73
2023/09/29 02:42:28;;;;;;;14.52;10.35;;;20.70;99.90;;;;;;4592598;19;20002;-73
2023/09/29 02:44:04;;;;;;;14.13;10.70;;;20.70;99.90;;;;;;4593596;19;20303;-73
2023/09/29 02:45:41;;;;;;;13.45;9.85;;;20.70;99.90;;;;;;4593884;19;20426;-73
2023/09/29 02:47:14;;;;;;;13.35;10.68;;;20.70;99.90;;;;;;4592272;19;20003;-73
2023/09/29 02:48:50;;;;;;;13.93;10.23;;;20.70;99.90;;;;;;4593217;19;20003;-73
2023/09/29 02:50:25;;;;;;;13.43;10.00;;;20.70;99.90;;;;;;4592389;19;20353;-73
2023/09/29 02:52:04;;;;;;;12.90;10.30;;;20.70;99.90;;;;;;4593431;19;20009;-73
2023/09/29 02:53:41;;;;;;;12.10;9.88;;;20.70;99.90;;;;;;4592402;19;20006;-73
2023/09/29 02:55:16;;;;;;;15.00;10.38;;;20.70;99.90;;;;;;4593073;19;20030;-73
2023/09/29 02:56:50;;;;;;;12.60;9.45;;;20.70;99.90;;;;;;4593396;19;20029;-73
2023/09/29 02:58:26;;;;;;;14.82;10.45;;;20.70;99.90;;;;;;4593649;19;20014;-73
2023/09/29 03:00:08;;;;;;;10.75;9.65;;;20.70;99.90;;;;;;4592523;19;20059;-73
2023/09/29 03:01:44;;;;;;;13.40;10.80;;;20.70;99.90;;;;;;4593171;19;20029;-73
2023/09/29 03:03:20;;;;;;;14.45;10.68;;;20.70;99.90;;;;;;4593562;19;20010;-73
2023/09/29 03:04:56;;;;;;;17.67;9.98;;;20.70;99.90;;;;;;4593456;19;20003;-73
2023/09/29 03:06:29;;;;;;;13.00;9.18;;;20.70;99.90;;;;;;4593160;19;20021;-73
2023/09/29 03:08:06;;;;;;;13.40;9.73;;;20.70;99.90;;;;;;4593470;19;20002;-73
2023/09/29 03:09:42;;;;;;;11.63;9.25;;;20.70;99.90;;;;;;4592842;19;20025;-73
2023/09/29 03:11:16;;;;;;;12.20;9.30;;;20.70;99.90;;;;;;4591997;19;20409;-73
2023/09/29 03:12:53;;;;;;;11.35;9.20;;;20.70;99.90;;;;;;4593050;19;20007;-73
2023/09/29 03:14:27;;;;;;;12.90;9.90;;;20.70;99.90;;;;;;4593078;19;20298;-73
2023/09/29 03:16:02;;;;;;;15.05;9.95;;;20.70;99.90;;;;;;4592501;19;20422;-73
2023/09/29 03:17:37;;;;;;;11.95;10.20;;;20.70;99.90;;;;;;4592994;19;20003;-73
2023/09/29 03:19:11;;;;;;;13.10;10.13;;;20.70;99.90;;;;;;4591419;19;20013;-73
2023/09/29 03:20:45;;;;;;;13.18;10.40;;;20.70;99.90;;;;;;4591200;19;20036;-73
2023/09/29 03:22:21;;;;;;;13.73;9.65;;;20.70;99.90;;;;;;4592490;19;20011;-73
2023/09/29 03:23:54;;;;;;;12.68;10.00;;;20.70;99.90;;;;;;4593111;19;19995;-73
2023/09/29 03:25:29;;;;;;;13.27;10.52;;;20.70;99.90;;;;;;4593055;19;19998;-73
2023/09/29 03:27:07;;;;;;;14.57;10.63;;;20.70;99.90;;;;;;4592766;19;20074;-73
2023/09/29 03:28:43;;;;;;;12.55;9.93;;;20.70;99.90;;;;;;4592752;19;20031;-73
2023/09/29 03:30:17;;;;;;;12.68;10.48;;;20.70;99.90;;;;;;4592076;19;20002;-73
2023/09/29 03:31:54;;;;;;;12.27;9.85;;;20.70;99.90;;;;;;4591417;19;20211;-74
2023/09/29 03:33:29;;;;;;;14.02;9.50;;;20.70;99.90;;;;;;4591347;19;20021;-72
2023/09/29 03:35:05;;;;;;;13.10;9.73;;;20.70;99.90;;;;;;4592629;19;20409;-73
2023/09/29 03:36:41;;;;;;;11.75;9.07;;;20.70;99.90;;;;;;4592904;19;20453;-73
2023/09/29 03:38:20;;;;;;;12.18;10.50;;;20.70;99.90;;;;;;4592422;19;20066;-73
2023/09/29 03:39:55;;;;;;;11.32;9.65;;;20.70;99.90;;;;;;4590848;19;20011;-73
2023/09/29 03:41:30;;;;;;;12.35;9.95;;;20.70;99.90;;;;;;4591229;19;20414;-73
2023/09/29 03:43:04;;;;;;;12.93;9.55;;;20.70;99.90;;;;;;4592329;19;20015;-73
2023/09/29 03:44:38;;;;;;;12.43;9.68;;;20.70;99.90;;;;;;4592714;19;20007;-73
2023/09/29 03:46:21;;;;;;;12.13;9.85;;;20.70;99.90;;;;;;4592421;19;20006;-75
2023/09/29 03:47:55;;;;;;;14.18;10.40;;;20.80;99.90;;;;;;4592703;19;20017;-73
2023/09/29 03:49:31;;;;;;;11.52;9.50;;;20.80;99.90;;;;;;4591942;19;21354;-73
2023/09/29 03:51:06;;;;;;;13.25;9.95;;;20.90;99.90;;;;;;4591056;19;20002;-73
2023/09/29 03:52:41;;;;;;;13.60;9.48;;;21.00;99.90;;;;;;4591896;19;20003;-73
2023/09/29 03:54:15;;;;;;;14.23;10.13;;;21.10;99.90;;;;;;4592562;19;20005;-73
2023/09/29 03:55:52;;;;;;;12.68;10.10;;;21.20;99.90;;;;;;4592254;19;20010;-73
2023/09/29 03:57:25;;;;;;;11.70;9.73;;;21.20;99.90;;;;;;4592473;19;20014;-73
2023/09/29 03:58:59;;;;;;;12.57;10.13;;;21.40;99.90;;;;;;4592139;19;20005;-73
2023/09/29 04:00:36;;;;;;;13.35;9.50;;;21.40;99.90;;;;;;4590446;19;20038;-72
2023/09/29 04:02:10;;;;;;;12.32;10.55;;;21.50;99.90;;;;;;4591376;19;20070;-72
2023/09/29 04:03:44;;;;;;;12.45;9.57;;;21.50;99.90;;;;;;4591044;19;20295;-72
2023/09/29 04:05:20;;;;;;;13.10;10.13;;;21.50;99.90;;;;;;4592183;19;20431;-72
2023/09/29 04:06:53;;;;;;;13.98;9.77;;;21.60;99.90;;;;;;4590706;19;20074;-73
2023/09/29 04:08:28;;;;;;;15.68;10.25;;;21.60;99.90;;;;;;4591701;19;20003;-73
2023/09/29 04:10:04;;;;;;;14.82;11.35;;;21.60;99.90;;;;;;4591544;19;20074;-73
2023/09/29 04:11:40;;;;;;;11.18;9.45;;;21.60;99.90;;;;;;4592275;19;19999;-72
2023/09/29 04:13:14;;;;;;;12.70;9.95;;;21.60;99.90;;;;;;4592014;19;20010;-72
2023/09/29 04:14:52;;;;;;;12.75;9.77;;;21.60;99.90;;;;;;4592301;19;20010;-72
2023/09/29 04:16:27;;;;;;;12.93;9.98;;;21.60;99.90;;;;;;4590889;19;20024;-72
2023/09/29 04:18:01;;;;;;;11.00;9.80;;;21.60;99.90;;;;;;4591659;19;20005;-73
2023/09/29 04:19:38;;;;;;;13.48;9.70;;;21.60;99.90;;;;;;4591409;19;20003;-73
2023/09/29 04:21:12;;;;;;;15.00;9.60;;;21.60;99.90;;;;;;4591892;19;20023;-73
2023/09/29 04:22:47;;;;;;;14.88;10.38;;;21.60;99.90;;;;;;4589231;19;20283;-73
2023/09/29 04:24:22;;;;;;;12.80;10.48;;;21.60;99.90;;;;;;4591518;19;20301;-73
2023/09/29 04:25:57;;;;;;;13.20;10.00;;;21.60;99.90;;;;;;4592026;19;19999;-73
2023/09/29 04:27:32;;;;;;;13.10;10.45;;;21.60;99.90;;;;;;4592017;19;20376;-73
2023/09/29 04:29:07;;;;;;;14.02;10.45;;;21.60;99.90;;;;;;4594271;19;20062;-73
2023/09/29 04:30:41;;;;;;;12.48;9.57;;;21.50;99.90;;;;;;4595944;19;20011;-73
2023/09/29 04:32:15;;;;;;;11.90;10.45;;;21.50;99.90;;;;;;4596613;19;20302;-73
2023/09/29 04:33:50;;;;;;;11.77;9.85;;;21.50;99.90;;;;;;4596853;19;20009;-73
2023/09/29 04:35:24;;;;;;;16.90;11.52;;;21.50;99.90;;;;;;4596278;19;20007;-73
2023/09/29 04:36:59;;;;;;;13.02;9.63;;;21.50;99.90;;;;;;4596298;19;20002;-73
2023/09/29 04:38:35;;;;;;;12.75;10.75;;;21.50;99.90;;;;;;4596542;19;20073;-73
2023/09/29 04:40:09;;;;;;;11.73;10.18;;;21.40;99.90;;;;;;4595186;19;20002;-73
2023/09/29 04:41:43;;;;;;;13.55;10.07;;;21.40;99.90;;;;;;4594305;19;20006;-73
2023/09/29 04:43:19;;;;;;;13.70;9.38;;;21.40;99.90;;;;;;4595778;19;20024;-73
2023/09/29 04:44:54;;;;;;;11.30;9.82;;;21.40;99.90;;;;;;4596121;19;20002;-74
2023/09/29 04:46:28;;;;;;;12.15;10.20;;;21.40;99.90;;;;;;4596077;19;20003;-72
2023/09/29 04:48:05;;;;;;;14.27;10.30;;;21.40;99.90;;;;;;4596011;19;20006;-72
2023/09/29 04:49:39;;;;;;;17.25;10.48;;;21.40;99.90;;;;;;4595460;19;20003;-73
2023/09/29 04:51:12;;;;;;;16.50;10.45;;;21.40;99.90;;;;;;4595871;19;20026;-73
2023/09/29 04:52:48;;;;;;;13.88;11.20;;;21.40;99.90;;;;;;4596400;19;20016;-73
2023/09/29 04:54:23;;;;;;;13.60;9.70;;;21.40;99.90;;;;;;4595873;19;20019;-73
2023/09/29 04:56:01;;;;;;;17.35;10.93;;;21.40;99.90;;;;;;4595685;19;20026;-73
2023/09/29 04:57:36;;;;;;;14.32;9.38;;;21.50;99.90;;;;;;4594789;19;20446;-73
2023/09/29 04:59:10;;;;;;;12.15;10.23;;;21.50;99.90;;;;;;4594235;19;20007;-72
2023/09/29 05:00:44;;;;;;;13.85;10.85;;;21.60;99.90;;;;;;4595681;19;20007;-73
2023/09/29 05:02:19;;;;;;;15.48;9.65;;;21.70;99.90;;;;;;4594222;19;20010;-73
2023/09/29 05:03:54;;;;;;;14.95;10.27;;;21.70;99.90;;;;;;4595318;19;20464;-72
2023/09/29 05:05:28;;;;;;;12.60;10.48;;;21.80;99.90;;;;;;4595319;19;20002;-72
2023/09/29 05:07:04;;;;;;;15.35;10.18;;;21.80;99.90;;;;;;4595054;19;20006;-72
2023/09/29 05:08:39;;;;;;;13.82;9.95;;;21.90;99.90;;;;;;4595530;19;20005;-72
2023/09/29 05:10:14;;;;;;;18.00;11.27;;;21.90;99.90;;;;;;4594516;19;20003;-72
2023/09/29 05:11:49;;;;;;;13.50;11.25;;;21.90;99.90;;;;;;4595595;19;20007;-72
2023/09/29 05:13:25;;;;;;;14.30;10.57;;;22.00;99.90;;;;;;4595437;19;20002;-72
2023/09/29 05:14:59;;;;;;;11.25;9.77;;;22.00;99.90;;;;;;4595820;19;20002;-72
2023/09/29 05:16:35;;;;;;;12.38;11.07;;;22.00;99.90;;;;;;4595413;19;20024;-72
2023/09/29 05:18:09;;;;;;;14.35;10.60;;;22.10;99.90;;;;;;4595382;19;20002;-72
2023/09/29 05:19:44;;;;;;;13.18;10.15;;;22.10;99.90;;;;;;4594502;19;20035;-72
2023/09/29 05:21:20;;;;;;;13.80;10.63;;;22.10;99.90;;;;;;4595222;19;20010;-72
2023/09/29 05:22:55;;;;;;;13.07;10.68;;;22.10;99.90;;;;;;4595141;19;20442;-72
2023/09/29 05:24:29;;;;;;;14.27;11.38;;;22.10;99.90;;;;;;4595323;19;20474;-72
2023/09/29 05:26:07;;;;;;;14.48;10.55;;;22.10;99.90;;;;;;4595615;19;20069;-72
2023/09/29 05:27:40;;;;;;;16.95;10.43;;;22.10;99.90;;;;;;4594147;19;20007;-72
2023/09/29 05:29:14;;;;;;;15.15;10.75;;;22.20;99.90;;;;;;4594787;19;20006;-72
2023/09/29 05:30:59;;;;;;;14.45;10.75;;;22.20;99.90;;;;;;4595373;19;20422;-72
2023/09/29 05:32:33;;;;;;;12.25;10.73;;;22.20;99.90;;;;;;4595356;19;20023;-72
2023/09/29 05:34:07;;;;;;;14.00;10.52;;;22.20;99.90;;;;;;4595302;19;20005;-72
2023/09/29 05:35:49;;;;;;;13.48;10.57;;;22.20;99.90;;;;;;4595075;19;20014;-72
2023/09/29 05:37:23;;;;;;;12.32;10.85;;;22.20;99.90;;;;;;4594909;19;20442;-72
2023/09/29 05:38:57;;;;;;;14.80;11.60;;;22.20;99.90;;;;;;4593301;19;19998;-72
2023/09/29 05:40:32;;;;;;;13.07;10.55;;;22.20;99.90;;;;;;4590860;19;20417;-72
2023/09/29 05:42:06;;;;;;;16.15;11.20;;;22.20;99.90;;;;;;4594006;19;20073;-72
2023/09/29 05:43:40;;;;;;;14.38;11.50;;;22.20;99.90;;;;;;4595047;19;20429;-72
2023/09/29 05:45:15;;;;;;;15.77;10.45;;;22.20;99.90;;;;;;4593392;19;20002;-72
2023/09/29 05:46:50;;;;;;;15.95;11.50;;;22.10;99.90;;;;;;4593655;19;20302;-72
2023/09/29 05:48:24;;;;;;;14.27;10.57;;;22.10;99.90;;;;;;4594606;19;20002;-72
2023/09/29 05:49:59;;;;;;;16.48;11.45;;;22.10;99.90;;;;;;4592647;19;20403;-72
2023/09/29 05:51:34;;;;;;;14.40;11.30;;;22.10;99.90;;;;;;4594527;19;19998;-72
2023/09/29 05:53:08;;;;;;;12.68;10.75;;;22.10;99.90;;;;;;4594865;19;20010;-73
2023/09/29 05:55:08;;;;;;;15.70;10.95;;;22.10;99.90;;;;;;4592758;19;20139;-75
2023/09/29 05:57:14;;;;;;;12.80;11.20;;;22.00;99.90;;;;;;4596232;19;20326;-72
2023/09/29 05:58:53;;;;;;;13.18;10.63;;;22.00;99.90;;;;;;4595200;19;20036;-70
2023/09/29 06:00:28;;;;;;;15.95;14.45;;;22.00;99.90;;;;;;4593506;19;20045;-70
2023/09/29 06:02:01;;;;;;;16.75;15.15;;;20.20;99.90;;;;;;4594397;19;20102;-72
2023/09/29 06:03:37;;;;;;;16.90;15.18;;;18.70;99.90;;;;;;4597240;19;20022;-73
2023/09/29 06:05:12;;;;;;;17.05;15.25;;;18.00;99.90;;;;;;4595893;19;20014;-72
2023/09/29 06:06:54;;;;;;;16.80;15.18;;;17.70;99.90;;;;;;4596576;19;20014;-72
2023/09/29 06:08:49;;;;;;;17.63;15.77;;;17.50;99.90;;;;;;4593623;19;20051;-72
2023/09/29 06:10:25;;;;;;;17.35;15.55;;;17.40;99.90;;;;;;4594494;19;20317;-71
2023/09/29 06:12:02;;;;;;;16.75;15.13;;;17.30;99.90;;;;;;4597200;19;20017;-72
2023/09/29 06:13:35;;;;;;;16.92;15.13;;;17.30;99.90;;;;;;4596384;19;20011;-72
2023/09/29 06:15:11;;;;;;;16.98;14.77;;;17.30;99.90;;;;;;4596896;19;20358;-72
2023/09/29 06:16:46;;;;;;;16.08;14.38;;;17.40;99.90;;;;;;4594769;19;20018;-72
2023/09/29 06:18:21;;;;;;;16.50;14.48;;;17.30;99.90;;;;;;4594882;19;20019;-72
2023/09/29 06:19:59;;;;;;;15.43;13.88;;;17.30;99.90;;;;;;4594343;19;20011;-72
2023/09/29 06:21:34;;;;;;;16.52;14.80;;;17.30;99.90;;;;;;4595917;19;20489;-72
2023/09/29 06:23:11;;;;;;;15.57;14.00;;;17.40;99.90;;;;;;4595302;19;20002;-72
2023/09/29 06:24:49;;;;;;;16.50;14.40;;;17.40;99.90;;;;;;4595917;19;20025;-72
2023/09/29 06:26:23;;;;;;;16.25;14.48;;;17.40;99.90;;;;;;4593671;19;20018;-72
2023/09/29 06:27:57;;;;;;;15.68;13.98;;;17.40;99.90;;;;;;4595235;19;20015;-72
2023/09/29 06:29:37;;;;;;;15.18;13.57;;;17.40;99.90;;;;;;4594423;19;20022;-72
2023/09/29 06:31:11;;;;;;;16.02;14.32;;;17.40;99.90;;;;;;4595239;19;20460;-72
2023/09/29 06:32:54;;;;;;;14.68;13.18;;;17.40;99.90;;;;;;4595994;19;20014;-72
2023/09/29 06:34:33;;;;;;;14.93;13.02;;;17.40;99.90;;;;;;4595199;19;20021;-72
2023/09/29 06:36:16;;;;;;;13.70;12.30;;;17.50;99.90;;;;;;4595817;19;20318;-72
2023/09/29 06:37:52;;;;;;;15.32;12.45;;;17.50;99.90;;;;;;4595368;19;20014;-72
2023/09/29 06:39:27;;;;;;;15.45;13.40;;;17.50;99.90;;;;;;4594495;19;20006;-72
2023/09/29 06:41:01;;;;;;;14.38;12.88;;;17.60;99.90;;;;;;4594062;19;20014;-72
2023/09/29 06:42:35;;;;;;;16.00;13.20;;;17.60;99.90;;;;;;4592562;19;20334;-72
2023/09/29 06:44:14;;;;;;;14.90;12.73;;;17.60;99.90;;;;;;4592137;19;20010;-72
2023/09/29 06:45:48;;;;;;;14.90;12.90;;;17.60;99.90;;;;;;4593199;19;20069;-72
2023/09/29 06:47:22;;;;;;;13.85;12.40;;;17.70;99.90;;;;;;4593557;19;20003;-72
2023/09/29 06:48:58;;;;;;;13.23;11.85;;;17.70;99.90;;;;;;4593611;19;20023;-72
2023/09/29 06:50:32;;;;;;;15.85;12.85;;;17.70;99.90;;;;;;4592202;19;20113;-72
2023/09/29 06:52:06;;;;;;;14.27;12.77;;;17.80;99.90;;;;;;4592927;19;20006;-72
2023/09/29 06:53:42;;;;;;;14.90;13.43;;;17.80;99.90;;;;;;4593399;19;20018;-72
2023/09/29 06:55:16;;;;;;;14.00;12.60;;;17.80;99.90;;;;;;4593349;19;20010;-72
2023/09/29 06:56:50;;;;;;;13.65;12.10;;;17.80;99.90;;;;;;4593301;19;20460;-72
2023/09/29 06:58:25;;;;;;;13.90;12.48;;;17.90;99.90;;;;;;4592320;19;20014;-72
2023/09/29 07:00:00;;;;;;;14.68;13.20;;;17.90;99.90;;;;;;4592206;19;20425;-72
2023/09/29 07:01:36;;;;;;;14.43;12.93;;;17.90;99.90;;;;;;4593357;19;20010;-72
2023/09/29 07:03:17;;;;;;;14.60;13.00;;;17.90;99.90;;;;;;4593522;19;20014;-70
2023/09/29 07:05:30;;;;;;;14.63;11.93;;;17.90;99.90;;;;;;4591368;19;20017;-71
2023/09/29 07:07:12;;;;;;;13.98;12.48;;;17.90;99.90;;;;;;4595285;19;20082;-70
2023/09/29 07:08:48;;;;;;;13.95;12.55;;;18.00;99.90;;;;;;4595819;19;20010;-70
2023/09/29 07:10:21;;;;;;;14.43;12.68;;;18.00;99.90;;;;;;4594195;19;20022;-69
2023/09/29 07:11:59;;;;;;;15.30;12.45;;;18.10;99.90;;;;;;4595987;19;20010;-71
2023/09/29 07:13:37;;;;;;;13.70;12.20;;;18.10;99.90;;;;;;4595202;19;20330;-71
2023/09/29 07:15:12;;;;;;;13.00;11.57;;;18.20;99.90;;;;;;4592783;19;20018;-71
2023/09/29 07:16:49;;;;;;;13.75;12.27;;;18.20;99.90;;;;;;4595434;19;20019;-70
2023/09/29 07:18:23;;;;;;;14.48;12.95;;;18.20;99.90;;;;;;4593752;19;20014;-71
2023/09/29 07:19:59;;;;;;;13.50;11.80;;;18.30;99.90;;;;;;4594053;19;20018;-70
2023/09/29 07:21:35;;;;;;;13.82;11.48;;;18.40;99.90;;;;;;4593277;19;20021;-72
2023/09/29 07:23:09;;;;;;;11.38;10.00;;;18.60;99.90;;;;;;4591962;19;20002;-70
2023/09/29 07:24:46;;;;;;;10.45;9.38;;;18.90;99.90;;;;;;4592079;19;20002;-71
2023/09/29 07:26:22;;;;;;;9.20;8.20;;;19.20;99.90;;;;;;4592071;19;20024;-70
2023/09/29 07:27:56;;;;;;;10.63;8.68;;;19.30;99.90;;;;;;4592276;19;20003;-70
2023/09/29 07:29:30;;;;;;;10.27;8.68;;;19.50;99.90;;;;;;4591761;19;20338;-72
2023/09/29 07:31:06;;;;;;;10.68;8.45;;;19.70;99.90;;;;;;4589614;19;19998;-71
2023/09/29 07:32:43;;;;;;;10.02;8.48;;;19.80;99.90;;;;;;4591602;19;20304;-72
2023/09/29 07:34:19;;;;;;;10.65;8.07;;;19.90;99.90;;;;;;4592159;19;20021;-72
2023/09/29 07:35:54;;;;;;;11.13;7.82;;;20.10;99.90;;;;;;4592005;19;20009;-71
2023/09/29 07:37:29;;;;;;;11.07;7.90;;;20.20;99.90;;;;;;4590962;19;20013;-71
2023/09/29 07:39:03;;;;;;;11.57;9.00;;;20.30;99.90;;;;;;4592079;19;19999;-71
2023/09/29 07:40:38;;;;;;;11.23;7.75;;;20.40;99.90;;;;;;4592731;19;20015;-70
2023/09/29 07:42:13;;;;;;;11.05;8.55;;;20.40;99.90;;;;;;4590522;19;20569;-70
2023/09/29 07:43:47;;;;;;;11.93;9.00;;;20.50;99.90;;;;;;4591772;19;19998;-70
2023/09/29 07:45:22;;;;;;;9.88;8.18;;;20.60;99.90;;;;;;4590950;19;20010;-69
2023/09/29 07:47:45;;;;;;;12.93;7.75;;;20.70;99.90;;;;;;4589947;19;20026;-71
2023/09/29 07:49:43;;;;;;;9.93;7.85;;;20.70;99.90;;;;;;4593939;19;20388;-70
2023/09/29 07:51:21;;;;;;;10.73;8.07;;;20.80;99.90;;;;;;4593974;19;20021;-70
2023/09/29 07:52:59;;;;;;;;;;;20.80;99.90;;;;;;4593154;19;20015;-70
2023/09/29 07:54:36;;;;;;;10.90;8.82;;;20.90;99.90;;;;;;4591081;19;20245;-70
2023/09/29 07:56:10;;;;;;;11.30;7.20;;;20.90;99.90;;;;;;4593781;19;20011;-70
2023/09/29 07:57:44;;;;;;;13.02;8.30;;;20.90;99.90;;;;;;4593387;19;20033;-70
2023/09/29 07:59:20;;;;;;;9.40;7.47;;;20.90;99.90;;;;;;4592457;19;20014;-70
2023/09/29 08:00:54;;;;;;;10.57;7.00;;;20.90;99.90;;;;;;4592912;19;20010;-70
2023/09/29 08:02:28;;;;;;;11.27;7.32;;;21.00;99.90;;;;;;4590212;19;20028;-70
2023/09/29 08:04:04;;;;;;;9.90;7.15;;;21.00;99.90;;;;;;4593422;19;20029;-70
2023/09/29 08:05:38;;;;;;;9.52;7.38;;;21.00;99.90;;;;;;4593172;19;20014;-70
2023/09/29 08:07:14;;;;;;;9.15;7.28;;;21.00;99.90;;;;;;4592559;19;20023;-70
2023/09/29 08:08:52;;;;;;;10.90;7.47;;;21.00;99.90;;;;;;4592941;19;20018;-70
2023/09/29 08:10:26;;;;;;;10.57;7.32;;;21.10;99.90;;;;;;4589794;19;20015;-70
2023/09/29 08:12:06;;;;;;;9.80;7.43;;;21.10;99.90;;;;;;4592853;19;20461;-70
2023/09/29 08:13:46;;;;;;;8.27;7.20;;;21.10;99.90;;;;;;4593015;19;20098;-70
2023/09/29 08:15:22;;;;;;;11.20;7.88;;;21.10;99.90;;;;;;4592340;19;20070;-70
2023/09/29 08:16:56;;;;;;;10.15;6.95;;;21.10;99.90;;;;;;4592058;19;20417;-70
2023/09/29 08:18:34;;;;;;;10.50;7.40;;;21.10;99.90;;;;;;4592583;19;20013;-70
2023/09/29 08:20:10;;;;;;;8.35;6.88;;;21.20;99.90;;;;;;4589084;19;20026;-70
2023/09/29 08:21:47;;;;;;;10.00;7.57;;;21.20;99.90;;;;;;4590786;19;20018;-70
2023/09/29 08:23:23;;;;;;;13.15;7.13;;;21.20;99.90;;;;;;4590217;19;20006;-70
2023/09/29 08:24:58;;;;;;;8.60;6.97;;;21.20;99.90;;;;;;4591066;19;20078;-70
2023/09/29 08:26:32;;;;;;;9.75;7.13;;;21.20;99.90;;;;;;4590245;19;20318;-70
2023/09/29 08:28:08;;;;;;;8.75;7.43;;;21.20;99.90;;;;;;4591010;19;20302;-70